Time;durP1;ratioP1;P1;durP2;ratioP2;P2;SDS_P1;SDS_P2;PMS_P1;PMS_P2;Temp;Humidity;BMP_temperature;BMP_pressure;BME280_temperature;BME280_humidity;BME280_pressure;Samples;Min_cycle;Max_cycle;Signal;HPM_P1;HPM_P2
2023/09/26 00:00:33;;;;;;;10.30;5.10;;;17.30;63.00;;;;;;4797004;29;20209;-32
2023/09/26 00:03:06;;;;;;;9.63;5.18;;;17.30;63.00;;;;;;4791343;29;20302;-32
2023/09/26 00:05:35;;;;;;;8.52;5.18;;;17.30;63.00;;;;;;4797546;29;20232;-32
2023/09/26 00:08:03;;;;;;;8.10;5.25;;;17.30;63.00;;;;;;4798726;29;20627;-32
2023/09/26 00:10:31;;;;;;;8.33;5.13;;;17.20;63.00;;;;;;4798688;29;20537;-32
2023/09/26 00:13:01;;;;;;;9.70;5.18;;;17.20;63.00;;;;;;4782546;29;20249;-32
2023/09/26 00:15:28;;;;;;;7.68;4.88;;;17.20;63.10;;;;;;4782066;29;20221;-31
2023/09/26 00:17:57;;;;;;;6.53;5.00;;;17.10;63.10;;;;;;4797770;29;20232;-32
2023/09/26 00:20:30;;;;;;;8.57;4.97;;;17.10;63.20;;;;;;4798491;29;20204;-32
2023/09/26 00:23:02;;;;;;;7.38;4.70;;;17.10;63.30;;;;;;4796985;29;20321;-32
2023/09/26 00:25:30;;;;;;;7.60;4.70;;;17.10;63.30;;;;;;4798522;29;20723;-32
2023/09/26 00:27:59;;;;;;;7.57;5.00;;;17.10;63.40;;;;;;4798587;29;20237;-32
2023/09/26 00:30:26;;;;;;;8.23;5.18;;;17.00;63.30;;;;;;4798924;29;20205;-32
2023/09/26 00:32:54;;;;;;;9.80;5.53;;;17.10;63.40;;;;;;4782072;29;20217;-32
2023/09/26 00:35:23;;;;;;;7.63;4.90;;;17.00;64.20;;;;;;4781825;29;20596;-32
2023/09/26 00:37:51;;;;;;;9.30;5.17;;;17.00;63.40;;;;;;4796737;29;20301;-32
2023/09/26 00:40:25;;;;;;;6.97;5.07;;;17.00;63.50;;;;;;4796761;29;20219;-32
2023/09/26 00:42:54;;;;;;;8.43;4.97;;;17.00;63.50;;;;;;4811561;29;20232;-32
2023/09/26 00:45:22;;;;;;;10.07;6.13;;;16.90;63.40;;;;;;4796971;29;20218;-32
2023/09/26 00:47:49;;;;;;;7.97;5.88;;;16.90;63.50;;;;;;4796727;29;20221;-32
2023/09/26 00:50:16;;;;;;;9.27;5.23;;;16.90;63.50;;;;;;4798437;29;20472;-32
2023/09/26 00:52:46;;;;;;;6.70;4.88;;;16.80;63.50;;;;;;4798434;29;20201;-32
2023/09/26 00:55:18;;;;;;;6.18;4.85;;;16.80;63.60;;;;;;4798737;29;20220;-32
2023/09/26 00:57:46;;;;;;;6.45;5.07;;;16.80;63.60;;;;;;4795560;29;20212;-32
2023/09/26 01:00:18;;;;;;;8.80;5.28;;;16.80;63.60;;;;;;4797604;29;20208;-31
2023/09/26 01:02:48;;;;;;;7.87;4.87;;;16.80;63.60;;;;;;4811386;29;20241;-32
2023/09/26 01:05:18;;;;;;;7.27;5.30;;;16.80;63.70;;;;;;4796563;29;20692;-32
2023/09/26 01:07:46;;;;;;;7.60;5.40;;;16.70;63.60;;;;;;4797853;29;20673;-32
2023/09/26 01:10:16;;;;;;;7.57;4.97;;;16.70;63.70;;;;;;4797905;29;20201;-32
2023/09/26 01:12:45;;;;;;;8.27;5.10;;;16.70;63.70;;;;;;4811240;29;20228;-32
2023/09/26 01:15:30;;;;;;;6.30;4.93;;;16.70;63.70;;;;;;4801159;29;20223;-32
2023/09/26 01:18:00;;;;;;;7.67;4.57;;;16.70;63.80;;;;;;4799803;29;20217;-32
2023/09/26 01:20:29;;;;;;;7.03;5.13;;;16.70;63.80;;;;;;4814680;29;20885;-32
2023/09/26 01:23:02;;;;;;;7.77;5.50;;;16.60;63.80;;;;;;4799390;29;20715;-33
2023/09/26 01:25:30;;;;;;;6.13;4.82;;;16.60;63.80;;;;;;4814620;29;20236;-33
2023/09/26 01:28:01;;;;;;;8.87;5.23;;;16.60;63.90;;;;;;4801053;29;20243;-32
2023/09/26 01:30:28;;;;;;;9.80;4.67;;;16.60;63.90;;;;;;4801777;29;20213;-32
2023/09/26 01:33:01;;;;;;;8.50;4.67;;;16.50;63.90;;;;;;4800070;29;20223;-32
2023/09/26 01:35:28;;;;;;;7.63;4.13;;;16.60;64.00;;;;;;4801753;29;20232;-32
2023/09/26 01:37:56;;;;;;;9.10;4.50;;;16.50;63.90;;;;;;4814781;29;20370;-32
2023/09/26 01:40:24;;;;;;;6.87;4.40;;;16.50;63.90;;;;;;4801228;29;20274;-32
2023/09/26 01:42:51;;;;;;;6.57;4.80;;;16.50;64.00;;;;;;4799612;29;20687;-32
2023/09/26 01:45:19;;;;;;;7.33;4.40;;;16.50;64.00;;;;;;4799798;29;20224;-32
2023/09/26 01:47:48;;;;;;;6.00;4.17;;;16.50;64.00;;;;;;4814406;29;20255;-32
2023/09/26 01:50:17;;;;;;;8.65;4.65;;;16.50;64.10;;;;;;4799222;29;20205;-32
2023/09/26 01:52:45;;;;;;;10.60;5.17;;;16.50;64.20;;;;;;4814131;29;20303;-32
2023/09/26 01:55:18;;;;;;;7.70;4.63;;;16.40;64.10;;;;;;4801180;29;20221;-32
2023/09/26 01:57:46;;;;;;;5.13;4.18;;;16.40;64.10;;;;;;4799479;29;20215;-32
2023/09/26 02:00:17;;;;;;;8.57;4.70;;;16.40;64.30;;;;;;4814003;29;20213;-32
2023/09/26 02:02:48;;;;;;;7.73;4.60;;;16.40;64.30;;;;;;4799200;29;20244;-32
2023/09/26 02:05:17;;;;;;;7.20;4.85;;;16.40;64.20;;;;;;4799471;29;20760;-32
2023/09/26 02:07:46;;;;;;;8.10;5.17;;;16.40;64.30;;;;;;4801110;29;20209;-33
2023/09/26 02:10:18;;;;;;;8.73;4.78;;;16.40;64.30;;;;;;4799631;29;21003;-32
2023/09/26 02:12:53;;;;;;;8.18;4.07;;;16.40;64.30;;;;;;4799469;29;20592;-32
2023/09/26 02:15:23;;;;;;;9.00;4.43;;;16.30;64.30;;;;;;4799212;29;20232;-32
2023/09/26 02:17:51;;;;;;;7.30;5.00;;;16.30;64.30;;;;;;4813809;29;20747;-33
2023/09/26 02:20:19;;;;;;;6.95;4.15;;;16.30;64.30;;;;;;4800340;29;20236;-32
2023/09/26 02:22:51;;;;;;;7.73;4.37;;;16.30;64.30;;;;;;4798898;29;20229;-32
2023/09/26 02:25:20;;;;;;;9.45;3.97;;;16.30;64.40;;;;;;4797884;29;20292;-33
2023/09/26 02:27:50;;;;;;;8.87;4.60;;;16.30;64.50;;;;;;4800212;29;20213;-32
2023/09/26 02:30:20;;;;;;;7.72;4.13;;;16.30;64.40;;;;;;4800321;29;20212;-33
2023/09/26 02:32:47;;;;;;;7.25;4.40;;;16.30;64.50;;;;;;4800038;29;20202;-33
2023/09/26 02:35:16;;;;;;;7.82;4.88;;;16.30;65.30;;;;;;4799066;29;20677;-32
2023/09/26 02:37:44;;;;;;;10.03;4.83;;;16.20;64.50;;;;;;4798877;29;20240;-32
2023/09/26 02:40:16;;;;;;;6.35;4.35;;;16.20;64.50;;;;;;4784004;29;20308;-32
2023/09/26 02:42:46;;;;;;;7.23;4.43;;;16.20;64.50;;;;;;4800221;29;20693;-32
2023/09/26 02:45:14;;;;;;;8.17;5.73;;;16.20;64.50;;;;;;4813972;29;20236;-32
2023/09/26 02:47:42;;;;;;;8.83;4.80;;;16.20;64.50;;;;;;4813300;29;20725;-32
2023/09/26 02:50:11;;;;;;;10.37;5.40;;;16.20;64.60;;;;;;4800370;29;20212;-32
2023/09/26 02:52:41;;;;;;;7.33;4.43;;;16.20;64.60;;;;;;4798486;29;20205;-32
2023/09/26 02:55:10;;;;;;;7.97;4.65;;;16.10;64.60;;;;;;4800285;29;20270;-32
2023/09/26 02:57:39;;;;;;;9.70;4.70;;;16.10;64.50;;;;;;4799601;29;20209;-32
2023/09/26 03:00:28;;;;;;;9.03;4.83;;;16.10;64.60;;;;;;4813007;29;20229;-32
2023/09/26 03:02:55;;;;;;;10.77;5.03;;;16.10;64.70;;;;;;4798273;29;20347;-32
2023/09/26 03:05:22;;;;;;;4.67;4.03;;;16.10;64.70;;;;;;4799772;29;20217;-32
2023/09/26 03:07:54;;;;;;;6.83;4.60;;;16.10;64.70;;;;;;4798106;29;20231;-33
2023/09/26 03:10:24;;;;;;;8.23;4.93;;;16.00;64.70;;;;;;4799705;29;20319;-32
2023/09/26 03:12:56;;;;;;;7.22;4.68;;;16.00;64.70;;;;;;4798339;29;20311;-32
2023/09/26 03:15:23;;;;;;;11.00;4.80;;;16.00;64.70;;;;;;4799514;29;20266;-32
2023/09/26 03:17:51;;;;;;;6.07;4.53;;;16.00;64.80;;;;;;4798579;29;20296;-32
2023/09/26 03:20:18;;;;;;;6.93;4.30;;;16.00;64.80;;;;;;4800075;29;20245;-32
2023/09/26 03:22:45;;;;;;;5.33;4.43;;;15.90;64.80;;;;;;4799588;29;20324;-32
2023/09/26 03:25:13;;;;;;;7.77;4.70;;;15.90;64.80;;;;;;4798100;29;20639;-32
2023/09/26 03:27:41;;;;;;;6.60;3.87;;;15.90;64.80;;;;;;4812991;29;20595;-32
2023/09/26 03:30:12;;;;;;;7.13;4.70;;;15.90;64.80;;;;;;4798917;29;20213;-32
2023/09/26 03:32:43;;;;;;;6.50;4.30;;;15.90;64.80;;;;;;4799867;29;20257;-32
2023/09/26 03:35:11;;;;;;;8.50;4.53;;;15.90;64.90;;;;;;4799104;29;20220;-32
2023/09/26 03:37:39;;;;;;;6.07;4.53;;;15.90;65.00;;;;;;4798704;29;20205;-32
2023/09/26 03:40:08;;;;;;;6.53;4.83;;;15.80;64.90;;;;;;4798961;29;20225;-32
2023/09/26 03:42:36;;;;;;;7.33;4.57;;;15.80;65.00;;;;;;4799231;29;20208;-32
2023/09/26 03:45:05;;;;;;;6.93;5.00;;;15.80;65.00;;;;;;4797807;29;20947;-32
2023/09/26 03:47:37;;;;;;;7.60;4.90;;;15.80;65.00;;;;;;4782709;29;20301;-33
2023/09/26 03:50:08;;;;;;;10.37;5.83;;;15.80;65.00;;;;;;4797743;29;20219;-33
2023/09/26 03:52:38;;;;;;;8.10;5.00;;;15.80;65.00;;;;;;4798976;29;20631;-32
2023/09/26 03:55:06;;;;;;;8.40;5.20;;;15.70;65.00;;;;;;4799350;29;20673;-32
2023/09/26 03:57:34;;;;;;;8.23;5.43;;;15.70;65.00;;;;;;4797723;29;20233;-32
2023/09/26 04:00:18;;;;;;;7.00;4.53;;;15.70;65.10;;;;;;4797865;29;20577;-32
2023/09/26 04:02:46;;;;;;;7.67;4.77;;;15.70;65.10;;;;;;4812608;29;20562;-32
2023/09/26 04:05:18;;;;;;;7.67;4.33;;;15.70;65.10;;;;;;4797168;29;20241;-32
2023/09/26 04:07:45;;;;;;;8.83;5.10;;;15.70;65.20;;;;;;4812548;29;20292;-33
2023/09/26 04:10:12;;;;;;;10.70;5.57;;;15.70;65.30;;;;;;4812163;29;20300;-32
2023/09/26 04:12:43;;;;;;;7.03;4.70;;;15.70;65.30;;;;;;4797083;29;20209;-32
2023/09/26 04:15:10;;;;;;;6.53;4.97;;;15.70;65.40;;;;;;4798542;29;20249;-32
2023/09/26 04:17:40;;;;;;;9.57;4.83;;;15.70;65.40;;;;;;4798700;29;20304;-32
2023/09/26 04:20:16;;;;;;;6.90;4.80;;;15.70;65.40;;;;;;4798567;29;20217;-32
2023/09/26 04:23:03;;;;;;;11.00;5.33;;;15.70;65.40;;;;;;4798618;29;20221;-32
2023/09/26 04:25:33;;;;;;;6.77;4.73;;;15.70;65.40;;;;;;4797220;29;20784;-32
2023/09/26 04:28:05;;;;;;;9.35;4.85;;;15.70;65.40;;;;;;4797191;29;20246;-32
2023/09/26 04:30:38;;;;;;;9.30;4.83;;;15.70;65.40;;;;;;4782471;29;20290;-32
2023/09/26 04:33:08;;;;;;;7.70;4.70;;;15.70;65.50;;;;;;4798746;29;20753;-33
2023/09/26 04:35:38;;;;;;;5.97;5.10;;;15.60;65.40;;;;;;4798288;29;20600;-32
2023/09/26 04:38:05;;;;;;;7.40;4.93;;;15.70;65.50;;;;;;4798556;29;20204;-32
2023/09/26 04:40:48;;;;;;;7.95;5.25;;;15.70;65.50;;;;;;4796893;29;20348;-32
2023/09/26 04:43:15;;;;;;;6.27;5.07;;;15.60;65.60;;;;;;4796513;29;20241;-32
2023/09/26 04:45:43;;;;;;;11.67;5.10;;;15.70;65.60;;;;;;4798551;29;20634;-32
2023/09/26 04:48:12;;;;;;;6.63;5.55;;;15.60;65.60;;;;;;4782550;29;20205;-33
2023/09/26 04:50:39;;;;;;;10.00;5.33;;;15.70;65.60;;;;;;4800219;29;20225;-32
2023/09/26 04:53:06;;;;;;;8.82;4.53;;;15.70;65.70;;;;;;4815990;29;20281;-32
2023/09/26 04:55:36;;;;;;;7.35;5.05;;;15.70;65.70;;;;;;4800604;29;20207;-32
2023/09/26 04:58:04;;;;;;;6.75;4.93;;;15.60;65.60;;;;;;4802298;29;20767;-32
2023/09/26 05:00:34;;;;;;;6.50;5.30;;;15.70;65.70;;;;;;4814957;29;20649;-32
2023/09/26 05:03:04;;;;;;;5.83;4.50;;;15.60;65.60;;;;;;4801708;29;20213;-32
2023/09/26 05:05:32;;;;;;;6.97;4.72;;;15.60;65.70;;;;;;4800401;29;20673;-32
2023/09/26 05:08:01;;;;;;;6.07;4.72;;;15.60;65.70;;;;;;4800357;29;20736;-32
2023/09/26 05:10:31;;;;;;;7.30;4.90;;;15.60;65.70;;;;;;4815186;29;20502;-33
2023/09/26 05:12:58;;;;;;;7.13;4.93;;;15.60;65.80;;;;;;4785716;29;20647;-32
2023/09/26 05:15:28;;;;;;;8.13;5.20;;;15.70;65.80;;;;;;4801589;29;20225;-32
2023/09/26 05:17:57;;;;;;;11.07;5.43;;;15.60;65.80;;;;;;4801360;29;20631;-32
2023/09/26 05:20:28;;;;;;;12.87;5.73;;;15.60;65.90;;;;;;4799629;29;20217;-33
2023/09/26 05:22:55;;;;;;;8.13;4.70;;;15.60;65.90;;;;;;4801101;29;20295;-32
2023/09/26 05:25:22;;;;;;;8.37;5.10;;;15.60;65.90;;;;;;4801082;29;20903;-32
2023/09/26 05:27:49;;;;;;;12.13;5.77;;;15.70;65.90;;;;;;4801295;29;20269;-32
2023/09/26 05:30:17;;;;;;;6.77;5.37;;;15.60;65.90;;;;;;4799793;29;20215;-32
2023/09/26 05:32:44;;;;;;;11.53;5.27;;;15.60;65.90;;;;;;4801229;29;20834;-33
2023/09/26 05:35:12;;;;;;;7.90;4.80;;;15.60;65.90;;;;;;4800102;29;20229;-33
2023/09/26 05:37:39;;;;;;;13.50;5.23;;;15.60;65.90;;;;;;4799712;29;20216;-32
2023/09/26 05:40:08;;;;;;;8.10;5.17;;;15.60;65.90;;;;;;4784863;29;20277;-32
2023/09/26 05:42:37;;;;;;;10.15;5.13;;;15.60;65.90;;;;;;4800257;29;20297;-32
2023/09/26 05:45:09;;;;;;;7.73;5.10;;;15.60;65.90;;;;;;4801319;29;20328;-32
2023/09/26 05:47:37;;;;;;;9.30;4.70;;;15.60;66.00;;;;;;4801434;29;20772;-32
2023/09/26 05:50:05;;;;;;;11.30;4.90;;;15.60;66.00;;;;;;4800832;29;20216;-32
2023/09/26 05:52:36;;;;;;;8.07;4.97;;;15.60;66.10;;;;;;4784879;29;20213;-32
2023/09/26 05:55:05;;;;;;;12.43;5.50;;;15.60;66.10;;;;;;4814121;29;20211;-32
2023/09/26 05:57:37;;;;;;;10.97;5.43;;;15.50;66.00;;;;;;4800846;29;20697;-32
2023/09/26 06:00:12;;;;;;;12.43;6.07;;;15.50;66.00;;;;;;4800354;29;20205;-32
2023/09/26 06:02:41;;;;;;;11.83;5.37;;;15.50;66.10;;;;;;4798782;29;20212;-32
2023/09/26 06:05:09;;;;;;;18.97;5.70;;;15.50;66.10;;;;;;4798978;29;20233;-33
2023/09/26 06:07:37;;;;;;;9.83;5.53;;;15.50;66.20;;;;;;4799040;29;20227;-32
2023/09/26 06:10:10;;;;;;;15.20;5.67;;;15.50;66.30;;;;;;4813910;29;20328;-32
2023/09/26 06:12:38;;;;;;;13.10;5.70;;;15.50;66.30;;;;;;4800373;29;20209;-32
2023/09/26 06:15:07;;;;;;;11.60;5.53;;;15.50;66.30;;;;;;4800365;29;20224;-32
2023/09/26 06:17:36;;;;;;;10.90;5.93;;;15.50;66.40;;;;;;4799048;29;20253;-32
2023/09/26 06:20:10;;;;;;;13.50;5.67;;;15.50;66.40;;;;;;4801185;29;20577;-32
2023/09/26 06:22:37;;;;;;;12.03;5.70;;;15.60;66.50;;;;;;4813898;29;20692;-33
2023/09/26 06:25:07;;;;;;;16.93;6.80;;;15.60;66.60;;;;;;4798621;29;20232;-32
2023/09/26 06:27:37;;;;;;;12.10;6.20;;;15.60;66.50;;;;;;4800310;29;20211;-32
2023/09/26 06:30:05;;;;;;;16.20;6.00;;;15.60;66.50;;;;;;4798635;29;20688;-32
2023/09/26 06:32:39;;;;;;;13.97;5.90;;;15.60;66.60;;;;;;4812977;29;20212;-32
2023/09/26 06:35:10;;;;;;;14.47;6.03;;;15.70;66.70;;;;;;4799386;29;20221;-32
2023/09/26 06:37:37;;;;;;;33.63;8.00;;;15.70;66.80;;;;;;4799936;29;20209;-32
2023/09/26 06:40:08;;;;;;;36.80;8.40;;;15.70;66.70;;;;;;4799795;29;20209;-33
2023/09/26 06:42:35;;;;;;;36.20;8.23;;;15.70;66.70;;;;;;4813171;29;20591;-32
2023/09/26 06:45:07;;;;;;;16.87;6.30;;;15.70;66.80;;;;;;4812825;29;20645;-32
2023/09/26 06:47:34;;;;;;;13.87;7.20;;;15.80;66.90;;;;;;4813275;29;20785;-32
2023/09/26 06:50:02;;;;;;;15.70;7.00;;;15.80;66.90;;;;;;4799587;29;20221;-33
2023/09/26 06:52:33;;;;;;;9.90;5.80;;;15.80;66.80;;;;;;4799820;29;20209;-32
2023/09/26 06:55:09;;;;;;;16.77;6.10;;;15.90;66.90;;;;;;4813767;29;20535;-32
2023/09/26 06:57:37;;;;;;;13.17;5.90;;;15.90;66.90;;;;;;4799671;29;20967;-32
2023/09/26 07:00:05;;;;;;;15.73;5.70;;;15.90;66.90;;;;;;4812901;29;20458;-32
2023/09/26 07:02:33;;;;;;;13.43;5.93;;;16.00;67.00;;;;;;4797919;29;20228;-33
2023/09/26 07:05:01;;;;;;;11.80;6.30;;;16.00;67.00;;;;;;4798129;29;20228;-32
2023/09/26 07:07:31;;;;;;;14.50;6.47;;;16.00;67.00;;;;;;4812789;29;20251;-33
2023/09/26 07:09:59;;;;;;;13.73;5.73;;;16.00;67.00;;;;;;4799396;29;20313;-32
2023/09/26 07:12:26;;;;;;;11.02;5.57;;;16.10;67.00;;;;;;4798765;29;20300;-32
2023/09/26 07:14:57;;;;;;;8.27;5.70;;;16.10;67.10;;;;;;4797899;29;20308;-33
2023/09/26 07:17:24;;;;;;;14.53;6.13;;;16.10;67.10;;;;;;4799448;29;20221;-32
2023/09/26 07:19:52;;;;;;;17.00;6.03;;;16.20;67.20;;;;;;4798071;29;20209;-32
2023/09/26 07:22:19;;;;;;;21.03;6.20;;;16.20;67.10;;;;;;4812660;29;20685;-32
2023/09/26 07:24:51;;;;;;;16.67;6.20;;;16.20;67.20;;;;;;4797591;29;20237;-32
2023/09/26 07:27:24;;;;;;;16.90;6.20;;;16.30;67.30;;;;;;4797755;29;20211;-32
2023/09/26 07:29:54;;;;;;;11.60;5.87;;;16.30;67.20;;;;;;4812624;29;20212;-32
2023/09/26 07:32:21;;;;;;;15.30;5.93;;;16.30;67.30;;;;;;4799942;29;20232;-32
2023/09/26 07:34:48;;;;;;;12.53;5.00;;;16.40;67.40;;;;;;4812747;29;20209;-32
2023/09/26 07:37:18;;;;;;;20.85;5.85;;;16.40;67.40;;;;;;4783161;29;20213;-32
2023/09/26 07:39:49;;;;;;;15.33;5.63;;;16.50;67.50;;;;;;4799134;29;20259;-33
2023/09/26 07:42:19;;;;;;;8.88;5.18;;;16.50;67.50;;;;;;4812335;29;20716;-32
2023/09/26 07:44:48;;;;;;;10.90;5.15;;;16.60;67.50;;;;;;4797218;29;20249;-32
2023/09/26 07:47:18;;;;;;;8.40;4.88;;;16.60;67.50;;;;;;4798798;29;20233;-32
2023/09/26 07:49:45;;;;;;;10.82;5.18;;;16.70;67.50;;;;;;4798462;29;20660;-32
2023/09/26 07:52:12;;;;;;;8.05;5.10;;;16.80;67.60;;;;;;4812527;29;20225;-32
2023/09/26 07:54:42;;;;;;;9.67;4.30;;;16.80;67.60;;;;;;4797298;29;20261;-32
2023/09/26 07:57:09;;;;;;;9.20;4.67;;;16.90;67.70;;;;;;4798733;29;20308;-32
2023/09/26 07:59:38;;;;;;;13.52;4.20;;;17.00;67.70;;;;;;4798528;29;20245;-32
2023/09/26 08:02:07;;;;;;;9.83;4.20;;;17.00;67.70;;;;;;4782432;29;20219;-32
2023/09/26 08:04:37;;;;;;;11.93;5.50;;;17.10;67.80;;;;;;4797145;29;20229;-32
2023/09/26 08:07:07;;;;;;;8.73;4.97;;;17.10;67.80;;;;;;4799199;29;20216;-33
2023/09/26 08:09:34;;;;;;;6.30;3.95;;;17.20;67.80;;;;;;4798330;29;20749;-33
2023/09/26 08:12:04;;;;;;;5.38;3.97;;;17.30;67.80;;;;;;4798462;29;20353;-32
2023/09/26 08:14:33;;;;;;;6.30;3.70;;;17.40;67.90;;;;;;4812059;29;20649;-32
2023/09/26 08:17:00;;;;;;;5.43;3.30;;;17.50;68.00;;;;;;4798047;29;20712;-33
2023/09/26 08:19:30;;;;;;;9.27;3.13;;;17.50;67.90;;;;;;4798490;29;20208;-32
2023/09/26 08:22:00;;;;;;;5.97;3.40;;;17.60;68.00;;;;;;4796609;29;20306;-32
2023/09/26 08:24:28;;;;;;;11.15;3.20;;;17.70;68.00;;;;;;4796332;29;20225;-32
2023/09/26 08:26:55;;;;;;;6.50;3.05;;;17.70;68.10;;;;;;4798483;29;20720;-32
2023/09/26 08:29:24;;;;;;;7.55;3.22;;;17.80;68.10;;;;;;4796813;29;20680;-32
2023/09/26 08:31:51;;;;;;;13.60;3.63;;;17.90;68.10;;;;;;4798205;29;20277;-32
2023/09/26 08:34:19;;;;;;;12.37;3.37;;;18.00;68.20;;;;;;4798008;29;20262;-32
2023/09/26 08:36:46;;;;;;;10.95;3.20;;;18.10;68.20;;;;;;4796674;29;20308;-32
2023/09/26 08:39:14;;;;;;;11.20;3.20;;;18.20;68.20;;;;;;4812122;29;20451;-32
2023/09/26 08:41:47;;;;;;;15.50;3.27;;;18.20;68.10;;;;;;4811958;29;20208;-30
2023/09/26 08:44:17;;;;;;;11.52;2.65;;;18.30;68.20;;;;;;4797176;29;20248;-29
2023/09/26 08:46:49;;;;;;;6.93;2.92;;;18.40;68.10;;;;;;4797908;29;20473;-29
2023/09/26 08:49:19;;;;;;;6.15;3.10;;;18.50;68.20;;;;;;4798442;29;20221;-29
2023/09/26 08:51:46;;;;;;;8.73;2.60;;;18.60;68.20;;;;;;4811756;29;20217;-30
2023/09/26 08:54:15;;;;;;;7.40;2.40;;;18.70;68.10;;;;;;4781967;29;20213;-29
2023/09/26 08:56:45;;;;;;;5.15;2.30;;;18.70;68.00;;;;;;4796601;29;20513;-29
2023/09/26 08:59:13;;;;;;;5.97;2.30;;;18.80;68.00;;;;;;4797879;29;20308;-30
2023/09/26 09:01:41;;;;;;;5.85;2.08;;;18.90;68.10;;;;;;4796850;29;20645;-30
2023/09/26 09:04:09;;;;;;;7.05;2.50;;;18.90;68.00;;;;;;4811537;29;20231;-30
2023/09/26 09:06:39;;;;;;;5.80;2.58;;;19.00;68.00;;;;;;4798004;29;20265;-30
2023/09/26 09:09:13;;;;;;;8.25;2.67;;;19.10;68.10;;;;;;4781885;29;20309;-30
2023/09/26 09:11:44;;;;;;;6.13;2.90;;;19.20;68.10;;;;;;4796288;29;20212;-30
2023/09/26 09:14:11;;;;;;;5.97;2.75;;;19.20;68.10;;;;;;4797844;29;20303;-30
2023/09/26 09:16:53;;;;;;;7.45;2.85;;;19.30;68.10;;;;;;4797819;29;20296;-30
2023/09/26 09:19:40;;;;;;;7.30;2.10;;;19.40;68.10;;;;;;4798494;29;20217;-30
2023/09/26 09:22:18;;;;;;;8.30;2.70;;;19.40;68.10;;;;;;4796681;29;20246;-30
2023/09/26 09:24:56;;;;;;;8.57;2.75;;;19.50;68.10;;;;;;4796220;29;20228;-30
2023/09/26 09:27:38;;;;;;;12.73;3.03;;;19.60;68.20;;;;;;4796271;29;20296;-30
2023/09/26 09:30:15;;;;;;;13.23;3.10;;;19.70;68.20;;;;;;4796007;29;20312;-30
2023/09/26 09:32:43;;;;;;;16.83;3.33;;;19.80;68.20;;;;;;4795941;29;20691;-30
2023/09/26 09:35:15;;;;;;;17.17;3.85;;;19.80;68.20;;;;;;4797740;29;20735;-30
2023/09/26 09:37:49;;;;;;;17.42;3.75;;;19.90;68.10;;;;;;4814109;29;20215;-30
2023/09/26 09:40:20;;;;;;;10.60;2.63;;;20.00;68.20;;;;;;4800777;29;20439;-30
2023/09/26 09:42:49;;;;;;;9.45;2.70;;;20.00;68.20;;;;;;4800997;29;20235;-30
2023/09/26 09:45:19;;;;;;;6.85;2.63;;;20.10;68.10;;;;;;4800621;29;20233;-30
2023/09/26 09:47:49;;;;;;;7.20;2.47;;;20.20;68.30;;;;;;4799593;29;20217;-30
2023/09/26 09:50:19;;;;;;;9.25;2.70;;;20.30;68.20;;;;;;4800678;29;20205;-30
2023/09/26 09:52:49;;;;;;;5.05;2.25;;;20.30;68.10;;;;;;4784516;29;20205;-30
2023/09/26 09:55:26;;;;;;;12.25;2.50;;;20.40;68.00;;;;;;4799666;29;20209;-30
2023/09/26 09:57:55;;;;;;;3.72;2.03;;;20.50;68.00;;;;;;4801556;29;20358;-30
2023/09/26 10:00:24;;;;;;;9.82;2.50;;;20.50;67.80;;;;;;4800865;29;20236;-30
2023/09/26 10:02:52;;;;;;;9.38;2.25;;;20.60;68.00;;;;;;4814296;29;20503;-31
2023/09/26 10:05:21;;;;;;;7.60;2.40;;;20.70;68.00;;;;;;4800628;29;20253;-30
2023/09/26 10:07:54;;;;;;;5.40;2.13;;;20.70;67.90;;;;;;4800643;29;20629;-29
2023/09/26 10:10:22;;;;;;;4.68;2.03;;;20.80;67.90;;;;;;4800724;29;20241;-30
2023/09/26 10:12:52;;;;;;;4.72;2.00;;;20.80;68.00;;;;;;4798849;29;20201;-30
2023/09/26 10:16:07;;;;;;;3.42;2.10;;;20.90;68.00;;;;;;4800434;29;20227;-30
2023/09/26 10:18:39;;;;;;;3.28;2.00;;;21.00;67.90;;;;;;4800369;29;20216;-30
2023/09/26 10:21:24;;;;;;;5.35;2.30;;;21.00;67.80;;;;;;4800670;29;20213;-30
2023/09/26 10:24:05;;;;;;;5.55;2.17;;;21.10;67.70;;;;;;4800301;29;20217;-30
2023/09/26 10:26:37;;;;;;;5.05;1.90;;;21.10;67.60;;;;;;4800067;29;20236;-30
2023/09/26 10:29:11;;;;;;;5.40;2.13;;;21.20;67.70;;;;;;4799977;29;20296;-31
2023/09/26 10:31:54;;;;;;;5.45;2.28;;;21.30;67.70;;;;;;4798633;29;20292;-30
2023/09/26 10:34:30;;;;;;;3.38;2.08;;;21.30;67.60;;;;;;4813908;29;20225;-30
2023/09/26 10:37:20;;;;;;;4.05;1.90;;;21.40;67.60;;;;;;4799671;29;20304;-30
2023/09/26 10:40:14;;;;;;;3.13;2.20;;;21.40;67.50;;;;;;4800250;29;20223;-30
2023/09/26 10:42:43;;;;;;;3.92;1.83;;;21.50;68.00;;;;;;4799682;29;20307;-30
2023/09/26 10:45:30;;;;;;;4.68;2.13;;;21.60;67.50;;;;;;4798853;29;20369;-30
2023/09/26 10:48:03;;;;;;;4.93;2.08;;;21.60;67.50;;;;;;4799420;29;20341;-30
2023/09/26 10:50:43;;;;;;;3.38;1.83;;;21.70;67.40;;;;;;4799831;29;20624;-30
2023/09/26 10:53:13;;;;;;;4.50;2.30;;;21.70;67.30;;;;;;4798004;29;20212;-30
2023/09/26 10:55:41;;;;;;;4.57;1.90;;;21.70;67.20;;;;;;4798045;29;20712;-30
2023/09/26 10:58:19;;;;;;;3.25;1.80;;;21.80;67.20;;;;;;4798077;29;20225;-30
2023/09/26 11:00:57;;;;;;;6.10;2.17;;;21.90;67.30;;;;;;4799518;29;20211;-30
2023/09/26 11:03:29;;;;;;;13.95;3.05;;;21.90;67.20;;;;;;4799547;29;20216;-30
2023/09/26 11:05:57;;;;;;;8.07;2.55;;;21.90;67.20;;;;;;4799935;29;20224;-30
2023/09/26 11:08:50;;;;;;;2.83;1.80;;;22.00;67.10;;;;;;4798634;29;20316;-30
2023/09/26 11:11:18;;;;;;;6.78;1.95;;;22.00;67.00;;;;;;4800310;29;20227;-30
2023/09/26 11:13:46;;;;;;;5.47;2.42;;;22.00;67.00;;;;;;4799466;29;20217;-30
2023/09/26 11:16:13;;;;;;;7.60;2.75;;;22.10;66.90;;;;;;4812964;29;20244;-30
2023/09/26 11:18:40;;;;;;;4.47;2.50;;;22.10;66.90;;;;;;4799409;29;20213;-30
2023/09/26 11:21:10;;;;;;;5.97;2.13;;;22.20;66.90;;;;;;4783557;29;20236;-30
2023/09/26 11:23:45;;;;;;;6.07;2.28;;;22.20;66.90;;;;;;4811963;29;20235;-30
2023/09/26 11:26:12;;;;;;;7.13;2.50;;;22.30;66.90;;;;;;4799063;29;20247;-30
2023/09/26 11:28:39;;;;;;;4.47;2.03;;;22.30;66.90;;;;;;4799152;29;20216;-30
2023/09/26 11:31:07;;;;;;;8.40;2.03;;;22.40;66.80;;;;;;4782633;29;20222;-30
2023/09/26 11:33:34;;;;;;;4.90;2.22;;;22.40;66.60;;;;;;4812658;29;20278;-30
2023/09/26 11:36:03;;;;;;;7.72;2.13;;;22.40;66.60;;;;;;4799003;29;20235;-30
2023/09/26 11:38:31;;;;;;;6.00;2.17;;;22.50;66.50;;;;;;4812506;29;20272;-30
2023/09/26 11:41:00;;;;;;;8.50;2.60;;;22.50;66.50;;;;;;4797665;29;20281;-30
2023/09/26 11:43:38;;;;;;;4.82;2.00;;;22.60;66.30;;;;;;4797557;29;20253;-30
2023/09/26 11:46:06;;;;;;;8.27;2.10;;;22.60;66.20;;;;;;4797770;29;20761;-30
2023/09/26 11:48:33;;;;;;;4.93;2.28;;;22.70;66.20;;;;;;4799044;29;20296;-30
2023/09/26 11:51:02;;;;;;;3.35;1.90;;;22.70;66.30;;;;;;4798716;29;20287;-30
2023/09/26 11:53:30;;;;;;;5.95;2.42;;;22.70;66.30;;;;;;4799037;29;20665;-29
2023/09/26 11:55:57;;;;;;;7.68;1.95;;;22.80;66.30;;;;;;4812578;29;20304;-30
2023/09/26 11:58:27;;;;;;;6.28;2.33;;;22.80;66.30;;;;;;4811900;29;20232;-30
2023/09/26 12:00:57;;;;;;;5.63;2.17;;;22.80;66.30;;;;;;4812382;29;20244;-30
2023/09/26 12:03:25;;;;;;;6.70;2.30;;;22.90;66.40;;;;;;4799050;29;20291;-30
2023/09/26 12:05:54;;;;;;;4.25;2.05;;;22.90;66.30;;;;;;4798541;29;20355;-30
2023/09/26 12:08:26;;;;;;;7.07;2.40;;;23.00;66.30;;;;;;4798587;29;20236;-30
2023/09/26 12:10:56;;;;;;;5.32;2.00;;;23.00;66.20;;;;;;4812089;29;20238;-30
2023/09/26 12:13:24;;;;;;;2.72;1.65;;;23.10;66.00;;;;;;4782145;29;20240;-32
2023/09/26 12:15:51;;;;;;;8.40;1.85;;;23.20;66.10;;;;;;4798726;29;20669;-33
2023/09/26 12:18:21;;;;;;;4.10;2.00;;;23.20;66.00;;;;;;4798369;29;20213;-33
2023/09/26 12:20:55;;;;;;;6.13;1.90;;;23.20;65.90;;;;;;4798602;29;20221;-33
2023/09/26 12:23:24;;;;;;;8.40;1.83;;;23.20;65.90;;;;;;4799108;29;20215;-33
2023/09/26 12:25:51;;;;;;;4.97;1.85;;;23.30;65.90;;;;;;4798714;29;20227;-33
2023/09/26 12:28:21;;;;;;;1.95;1.70;;;23.30;65.90;;;;;;4781991;29;20209;-33
2023/09/26 12:30:49;;;;;;;4.32;1.98;;;23.40;65.80;;;;;;4812046;29;20636;-33
2023/09/26 12:33:20;;;;;;;6.65;2.20;;;23.40;65.70;;;;;;4798183;29;20587;-33
2023/09/26 12:35:47;;;;;;;3.83;1.70;;;23.40;65.60;;;;;;4798326;29;20690;-33
2023/09/26 12:38:15;;;;;;;3.40;1.67;;;23.50;65.30;;;;;;4781777;29;20224;-33
2023/09/26 12:40:42;;;;;;;3.50;1.63;;;23.50;65.50;;;;;;4796270;29;20209;-33
2023/09/26 12:43:12;;;;;;;3.97;1.80;;;23.50;65.30;;;;;;4811580;29;20247;-33
2023/09/26 12:45:39;;;;;;;5.78;2.17;;;23.50;65.20;;;;;;4798126;29;20224;-33
2023/09/26 12:48:11;;;;;;;4.50;1.75;;;23.60;65.30;;;;;;4798157;29;20202;-33
2023/09/26 12:50:38;;;;;;;5.35;2.08;;;23.60;65.30;;;;;;4797905;29;20221;-33
2023/09/26 12:53:06;;;;;;;9.77;2.20;;;23.60;65.10;;;;;;4796519;29;20291;-33
2023/09/26 12:55:33;;;;;;;4.70;2.00;;;23.60;65.00;;;;;;4796640;29;20217;-33
2023/09/26 12:58:01;;;;;;;4.07;2.00;;;23.70;64.70;;;;;;4812026;29;20305;-33
2023/09/26 13:00:28;;;;;;;6.55;2.35;;;23.70;65.10;;;;;;4798386;29;20212;-33